sensor_id;sensor_type;location;lat;lon;timestamp;pressure;altitude;pressure_sealevel;temperature;humidity
84714;BME280;74938;42.658;23.248;2024-01-30T00:02:16;95899.22;;;-1.30;63.48
84714;BME280;74938;42.658;23.248;2024-01-30T00:04:42;95895.53;;;-1.41;64.15
84714;BME280;74938;42.658;23.248;2024-01-30T00:07:07;95899.06;;;-1.27;63.99
84714;BME280;74938;42.658;23.248;2024-01-30T00:09:33;95905.91;;;-1.45;63.02
84714;BME280;74938;42.658;23.248;2024-01-30T00:11:58;95901.50;;;-1.42;63.89
84714;BME280;74938;42.658;23.248;2024-01-30T00:14:23;95898.16;;;-1.42;63.36
84714;BME280;74938;42.658;23.248;2024-01-30T00:16:49;95904.25;;;-1.46;64.29
84714;BME280;74938;42.658;23.248;2024-01-30T00:19:15;95909.38;;;-1.63;64.98
84714;BME280;74938;42.658;23.248;2024-01-30T00:21:40;95899.84;;;-1.58;64.60
84714;BME280;74938;42.658;23.248;2024-01-30T00:24:06;95895.75;;;-1.61;64.88
84714;BME280;74938;42.658;23.248;2024-01-30T00:26:31;95912.84;;;-1.49;63.21
84714;BME280;74938;42.658;23.248;2024-01-30T00:28:57;95907.44;;;-1.58;63.63
84714;BME280;74938;42.658;23.248;2024-01-30T00:31:22;95901.31;;;-1.38;63.00
84714;BME280;74938;42.658;23.248;2024-01-30T00:33:48;95897.94;;;-1.55;63.75
84714;BME280;74938;42.658;23.248;2024-01-30T00:36:13;95902.16;;;-1.71;65.09
84714;BME280;74938;42.658;23.248;2024-01-30T00:38:38;95901.16;;;-1.84;63.79
84714;BME280;74938;42.658;23.248;2024-01-30T00:41:07;95900.41;;;-1.86;64.83
84714;BME280;74938;42.658;23.248;2024-01-30T00:43:32;95899.44;;;-1.84;63.81
84714;BME280;74938;42.658;23.248;2024-01-30T00:45:58;95896.78;;;-1.65;63.67
84714;BME280;74938;42.658;23.248;2024-01-30T00:48:24;95897.56;;;-1.47;63.98
84714;BME280;74938;42.658;23.248;2024-01-30T00:50:49;95897.03;;;-1.54;64.60
84714;BME280;74938;42.658;23.248;2024-01-30T00:53:14;95890.03;;;-1.49;63.16
84714;BME280;74938;42.658;23.248;2024-01-30T00:55:40;95887.91;;;-1.56;63.70
84714;BME280;74938;42.658;23.248;2024-01-30T00:58:05;95891.84;;;-1.35;62.50
84714;BME280;74938;42.658;23.248;2024-01-30T01:00:31;95897.34;;;-1.11;63.11
84714;BME280;74938;42.658;23.248;2024-01-30T01:02:58;95889.88;;;-1.30;62.25
84714;BME280;74938;42.658;23.248;2024-01-30T01:05:23;95890.94;;;-1.50;63.76
84714;BME280;74938;42.658;23.248;2024-01-30T01:07:48;95898.69;;;-1.53;62.53
84714;BME280;74938;42.658;23.248;2024-01-30T01:10:15;95892.69;;;-1.67;63.79
84714;BME280;74938;42.658;23.248;2024-01-30T01:12:41;95886.81;;;-1.68;64.64
84714;BME280;74938;42.658;23.248;2024-01-30T01:15:07;95886.50;;;-1.62;65.39
84714;BME280;74938;42.658;23.248;2024-01-30T01:17:35;95895.22;;;-1.67;64.71
84714;BME280;74938;42.658;23.248;2024-01-30T01:20:00;95885.59;;;-1.61;65.65
84714;BME280;74938;42.658;23.248;2024-01-30T01:22:26;95890.03;;;-1.49;64.18
84714;BME280;74938;42.658;23.248;2024-01-30T01:24:51;95889.25;;;-1.66;66.08
84714;BME280;74938;42.658;23.248;2024-01-30T01:27:16;95884.03;;;-1.63;64.63
84714;BME280;74938;42.658;23.248;2024-01-30T01:29:42;95890.66;;;-1.61;64.62
84714;BME280;74938;42.658;23.248;2024-01-30T01:32:08;95883.44;;;-1.68;64.90
84714;BME280;74938;42.658;23.248;2024-01-30T01:34:33;95891.75;;;-1.82;67.01
84714;BME280;74938;42.658;23.248;2024-01-30T01:36:59;95886.25;;;-1.90;66.00
84714;BME280;74938;42.658;23.248;2024-01-30T01:39:25;95891.53;;;-1.78;66.25
84714;BME280;74938;42.658;23.248;2024-01-30T01:41:50;95888.28;;;-1.64;66.36
84714;BME280;74938;42.658;23.248;2024-01-30T01:44:17;95888.94;;;-1.76;66.53
84714;BME280;74938;42.658;23.248;2024-01-30T01:46:42;95884.31;;;-1.85;66.21
84714;BME280;74938;42.658;23.248;2024-01-30T01:49:08;95889.06;;;-1.79;66.21
84714;BME280;74938;42.658;23.248;2024-01-30T01:51:35;95887.44;;;-1.80;64.70
84714;BME280;74938;42.658;23.248;2024-01-30T01:54:03;95892.84;;;-1.70;64.51
84714;BME280;74938;42.658;23.248;2024-01-30T01:56:30;95890.56;;;-1.75;65.14
84714;BME280;74938;42.658;23.248;2024-01-30T01:59:00;95895.31;;;-1.69;64.72
84714;BME280;74938;42.658;23.248;2024-01-30T02:01:27;95893.81;;;-1.73;64.45
84714;BME280;74938;42.658;23.248;2024-01-30T02:03:52;95881.84;;;-1.54;63.85
84714;BME280;74938;42.658;23.248;2024-01-30T02:06:18;95889.22;;;-1.49;64.96
84714;BME280;74938;42.658;23.248;2024-01-30T02:08:44;95905.44;;;-1.69;64.38
84714;BME280;74938;42.658;23.248;2024-01-30T02:11:09;95894.00;;;-1.76;65.05
84714;BME280;74938;42.658;23.248;2024-01-30T02:13:36;95901.97;;;-1.84;65.02
84714;BME280;74938;42.658;23.248;2024-01-30T02:16:01;95901.16;;;-1.84;64.62
84714;BME280;74938;42.658;23.248;2024-01-30T02:18:27;95896.84;;;-1.82;66.00
84714;BME280;74938;42.658;23.248;2024-01-30T02:20:54;95902.88;;;-1.85;65.53
84714;BME280;74938;42.658;23.248;2024-01-30T02:23:20;95890.53;;;-1.58;65.49
84714;BME280;74938;42.658;23.248;2024-01-30T02:25:45;95896.59;;;-1.78;65.09
84714;BME280;74938;42.658;23.248;2024-01-30T02:28:11;95894.06;;;-1.78;65.44
84714;BME280;74938;42.658;23.248;2024-01-30T02:30:38;95895.38;;;-1.70;65.27
84714;BME280;74938;42.658;23.248;2024-01-30T02:33:03;95887.28;;;-1.77;63.61
84714;BME280;74938;42.658;23.248;2024-01-30T02:35:29;95892.09;;;-1.72;64.34
84714;BME280;74938;42.658;23.248;2024-01-30T02:37:54;95884.41;;;-1.71;64.09
84714;BME280;74938;42.658;23.248;2024-01-30T02:40:20;95893.09;;;-1.75;64.02
84714;BME280;74938;42.658;23.248;2024-01-30T02:42:45;95891.53;;;-1.78;63.75
84714;BME280;74938;42.658;23.248;2024-01-30T02:45:11;95889.06;;;-1.79;62.64
84714;BME280;74938;42.658;23.248;2024-01-30T02:47:37;95890.97;;;-1.67;64.12
84714;BME280;74938;42.658;23.248;2024-01-30T02:50:02;95891.34;;;-1.42;62.63
84714;BME280;74938;42.658;23.248;2024-01-30T02:52:28;95888.88;;;-1.59;64.56
84714;BME280;74938;42.658;23.248;2024-01-30T02:54:53;95891.41;;;-1.59;62.77
84714;BME280;74938;42.658;23.248;2024-01-30T02:57:18;95893.06;;;-1.58;64.18
84714;BME280;74938;42.658;23.248;2024-01-30T02:59:44;95893.47;;;-1.50;63.63
84714;BME280;74938;42.658;23.248;2024-01-30T03:02:09;95895.66;;;-1.59;64.87
84714;BME280;74938;42.658;23.248;2024-01-30T03:04:34;95890.53;;;-1.58;64.87
84714;BME280;74938;42.658;23.248;2024-01-30T03:07:00;95890.16;;;-1.67;65.01
84714;BME280;74938;42.658;23.248;2024-01-30T03:09:25;95882.69;;;-1.70;63.97
84714;BME280;74938;42.658;23.248;2024-01-30T03:11:50;95877.47;;;-1.67;62.91
84714;BME280;74938;42.658;23.248;2024-01-30T03:14:16;95880.75;;;-1.65;64.26
84714;BME280;74938;42.658;23.248;2024-01-30T03:16:41;95875.13;;;-1.55;62.70
84714;BME280;74938;42.658;23.248;2024-01-30T03:19:07;95879.38;;;-1.55;62.95
84714;BME280;74938;42.658;23.248;2024-01-30T03:21:35;95881.19;;;-1.57;62.91
84714;BME280;74938;42.658;23.248;2024-01-30T03:24:00;95882.25;;;-1.61;64.49
84714;BME280;74938;42.658;23.248;2024-01-30T03:26:26;95879.19;;;-1.68;64.14
84714;BME280;74938;42.658;23.248;2024-01-30T03:28:51;95872.50;;;-1.69;63.71
84714;BME280;74938;42.658;23.248;2024-01-30T03:31:17;95879.41;;;-1.39;62.74
84714;BME280;74938;42.658;23.248;2024-01-30T03:33:42;95881.38;;;-1.45;62.01
84714;BME280;74938;42.658;23.248;2024-01-30T03:36:08;95871.44;;;-1.65;63.26
84714;BME280;74938;42.658;23.248;2024-01-30T03:38:34;95866.13;;;-1.76;62.40
84714;BME280;74938;42.658;23.248;2024-01-30T03:41:00;95869.69;;;-1.80;63.01
84714;BME280;74938;42.658;23.248;2024-01-30T03:43:25;95869.47;;;-1.76;63.03
84714;BME280;74938;42.658;23.248;2024-01-30T03:45:51;95864.19;;;-1.88;60.99
84714;BME280;74938;42.658;23.248;2024-01-30T03:48:16;95864.47;;;-1.77;60.71
84714;BME280;74938;42.658;23.248;2024-01-30T03:50:41;95857.03;;;-1.80;63.27
84714;BME280;74938;42.658;23.248;2024-01-30T03:53:07;95864.56;;;-1.79;62.06
84714;BME280;74938;42.658;23.248;2024-01-30T03:55:32;95862.88;;;-1.62;61.88
84714;BME280;74938;42.658;23.248;2024-01-30T03:57:57;95855.47;;;-1.83;61.57
84714;BME280;74938;42.658;23.248;2024-01-30T04:00:23;95857.03;;;-1.80;60.97
84714;BME280;74938;42.658;23.248;2024-01-30T04:02:48;95858.66;;;-1.79;61.18
84714;BME280;74938;42.658;23.248;2024-01-30T04:05:16;95863.97;;;-1.84;60.17
84714;BME280;74938;42.658;23.248;2024-01-30T04:07:41;95853.81;;;-1.84;60.45
84714;BME280;74938;42.658;23.248;2024-01-30T04:10:07;95856.63;;;-1.72;61.40
84714;BME280;74938;42.658;23.248;2024-01-30T04:12:32;95864.31;;;-1.74;61.08
84714;BME280;74938;42.658;23.248;2024-01-30T04:14:58;95853.53;;;-1.78;61.10
84714;BME280;74938;42.658;23.248;2024-01-30T04:17:23;95861.06;;;-1.76;60.46
84714;BME280;74938;42.658;23.248;2024-01-30T04:19:49;95863.66;;;-1.78;61.21
84714;BME280;74938;42.658;23.248;2024-01-30T04:22:14;95854.50;;;-1.80;60.02
84714;BME280;74938;42.658;23.248;2024-01-30T04:24:39;95865.31;;;-1.61;59.74
84714;BME280;74938;42.658;23.248;2024-01-30T04:27:05;95868.81;;;-1.79;60.17
84714;BME280;74938;42.658;23.248;2024-01-30T04:29:30;95868.28;;;-1.86;60.96
84714;BME280;74938;42.658;23.248;2024-01-30T04:31:57;95865.69;;;-1.84;60.68
84714;BME280;74938;42.658;23.248;2024-01-30T04:34:22;95869.78;;;-1.82;59.86
84714;BME280;74938;42.658;23.248;2024-01-30T04:36:48;95870.06;;;-1.88;60.29
84714;BME280;74938;42.658;23.248;2024-01-30T04:39:13;95870.91;;;-1.87;61.61
84714;BME280;74938;42.658;23.248;2024-01-30T04:41:39;95869.69;;;-1.80;60.41
84714;BME280;74938;42.658;23.248;2024-01-30T04:44:04;95866.66;;;-1.87;60.05
84714;BME280;74938;42.658;23.248;2024-01-30T04:46:30;95874.25;;;-1.87;60.17
84714;BME280;74938;42.658;23.248;2024-01-30T04:48:55;95881.19;;;-1.90;61.96
84714;BME280;74938;42.658;23.248;2024-01-30T04:51:21;95882.38;;;-1.80;60.42
84714;BME280;74938;42.658;23.248;2024-01-30T04:53:46;95885.81;;;-1.81;61.44
84714;BME280;74938;42.658;23.248;2024-01-30T04:56:11;95886.09;;;-1.87;61.43
84714;BME280;74938;42.658;23.248;2024-01-30T04:58:37;95890.28;;;-1.86;61.10
84714;BME280;74938;42.658;23.248;2024-01-30T05:01:02;95889.00;;;-1.78;61.49
84714;BME280;74938;42.658;23.248;2024-01-30T05:03:28;95895.72;;;-1.77;62.28
84714;BME280;74938;42.658;23.248;2024-01-30T05:05:53;95898.47;;;-1.81;61.56
84714;BME280;74938;42.658;23.248;2024-01-30T05:08:18;95899.00;;;-1.74;62.52
84714;BME280;74938;42.658;23.248;2024-01-30T05:10:44;95900.16;;;-1.64;61.40
84714;BME280;74938;42.658;23.248;2024-01-30T05:13:09;95896.34;;;-1.73;61.47
84714;BME280;74938;42.658;23.248;2024-01-30T05:15:35;95900.69;;;-1.75;61.66
84714;BME280;74938;42.658;23.248;2024-01-30T05:18:01;95894.88;;;-1.77;61.08
84714;BME280;74938;42.658;23.248;2024-01-30T05:20:26;95903.34;;;-1.94;62.34
84714;BME280;74938;42.658;23.248;2024-01-30T05:22:53;95911.69;;;-1.92;61.77
84714;BME280;74938;42.658;23.248;2024-01-30T05:25:19;95905.66;;;-2.06;62.48
84714;BME280;74938;42.658;23.248;2024-01-30T05:27:44;95911.16;;;-1.98;62.49
84714;BME280;74938;42.658;23.248;2024-01-30T05:30:10;95909.91;;;-2.07;61.52
84714;BME280;74938;42.658;23.248;2024-01-30T05:32:36;95915.78;;;-2.06;61.98
84714;BME280;74938;42.658;23.248;2024-01-30T05:35:01;95908.34;;;-2.09;61.92
84714;BME280;74938;42.658;23.248;2024-01-30T05:37:27;95902.69;;;-2.15;62.76
84714;BME280;74938;42.658;23.248;2024-01-30T05:39:52;95908.78;;;-2.19;63.36
84714;BME280;74938;42.658;23.248;2024-01-30T05:42:17;95912.06;;;-2.17;62.46
84714;BME280;74938;42.658;23.248;2024-01-30T05:44:43;95908.50;;;-2.13;63.79
84714;BME280;74938;42.658;23.248;2024-01-30T05:47:08;95915.50;;;-2.18;64.18
84714;BME280;74938;42.658;23.248;2024-01-30T05:49:33;95910.00;;;-2.26;63.30
84714;BME280;74938;42.658;23.248;2024-01-30T05:52:01;95908.38;;;-2.27;63.80
84714;BME280;74938;42.658;23.248;2024-01-30T05:54:27;95907.81;;;-2.16;62.94
84714;BME280;74938;42.658;23.248;2024-01-30T05:56:52;95909.53;;;-2.17;64.27
84714;BME280;74938;42.658;23.248;2024-01-30T05:59:17;95903.22;;;-2.25;63.86
84714;BME280;74938;42.658;23.248;2024-01-30T06:01:47;95911.47;;;-2.04;62.19
84714;BME280;74938;42.658;23.248;2024-01-30T06:04:13;95897.16;;;-2.23;62.81
84714;BME280;74938;42.658;23.248;2024-01-30T06:06:38;95903.72;;;-2.19;62.43
84714;BME280;74938;42.658;23.248;2024-01-30T06:09:03;95900.53;;;-2.22;62.09
84714;BME280;74938;42.658;23.248;2024-01-30T06:11:29;95896.97;;;-2.35;62.16
84714;BME280;74938;42.658;23.248;2024-01-30T06:13:54;95901.28;;;-2.37;63.01
84714;BME280;74938;42.658;23.248;2024-01-30T06:16:19;95904.03;;;-2.25;62.40
84714;BME280;74938;42.658;23.248;2024-01-30T06:18:46;95896.81;;;-2.32;63.83
84714;BME280;74938;42.658;23.248;2024-01-30T06:21:12;95902.47;;;-2.27;62.31
84714;BME280;74938;42.658;23.248;2024-01-30T06:23:38;95899.28;;;-2.31;62.86
84714;BME280;74938;42.658;23.248;2024-01-30T06:26:03;95906.25;;;-2.36;62.26
84714;BME280;74938;42.658;23.248;2024-01-30T06:28:29;95910.22;;;-2.30;61.98
84714;BME280;74938;42.658;23.248;2024-01-30T06:30:54;95916.69;;;-2.25;62.46
84714;BME280;74938;42.658;23.248;2024-01-30T06:33:19;95916.25;;;-2.16;61.78
84714;BME280;74938;42.658;23.248;2024-01-30T06:35:45;95905.81;;;-1.92;61.40
84714;BME280;74938;42.658;23.248;2024-01-30T06:38:11;95910.41;;;-1.83;61.85
84714;BME280;74938;42.658;23.248;2024-01-30T06:40:36;95907.63;;;-1.79;59.92
84714;BME280;74938;42.658;23.248;2024-01-30T06:43:04;95913.31;;;-1.73;59.96
84714;BME280;74938;42.658;23.248;2024-01-30T06:45:29;95907.09;;;-1.68;59.49
84714;BME280;74938;42.658;23.248;2024-01-30T06:47:55;95916.69;;;-1.57;60.61
84714;BME280;74938;42.658;23.248;2024-01-30T06:50:20;95910.06;;;-1.60;60.57
84714;BME280;74938;42.658;23.248;2024-01-30T06:52:45;95913.72;;;-1.65;60.41
84714;BME280;74938;42.658;23.248;2024-01-30T06:55:11;95911.00;;;-0.98;56.79
84714;BME280;74938;42.658;23.248;2024-01-30T06:57:36;95918.13;;;-0.43;55.36
84714;BME280;74938;42.658;23.248;2024-01-30T07:00:02;95906.00;;;-0.08;54.58
84714;BME280;74938;42.658;23.248;2024-01-30T07:02:28;95912.56;;;0.10;54.13
84714;BME280;74938;42.658;23.248;2024-01-30T07:04:53;95913.59;;;-0.22;54.81
84714;BME280;74938;42.658;23.248;2024-01-30T07:07:19;95914.97;;;1.11;52.64
84714;BME280;74938;42.658;23.248;2024-01-30T07:09:44;95914.31;;;3.26;46.92
84714;BME280;74938;42.658;23.248;2024-01-30T07:12:09;95907.97;;;4.70;42.17
84714;BME280;74938;42.658;23.248;2024-01-30T07:14:35;95904.03;;;5.75;39.13
84714;BME280;74938;42.658;23.248;2024-01-30T07:17:01;95912.53;;;6.79;36.77
84714;BME280;74938;42.658;23.248;2024-01-30T07:19:26;95907.22;;;7.51;34.68
84714;BME280;74938;42.658;23.248;2024-01-30T07:21:52;95913.06;;;6.01;35.84
84714;BME280;74938;42.658;23.248;2024-01-30T07:24:17;95911.31;;;7.04;35.24
84714;BME280;74938;42.658;23.248;2024-01-30T07:26:42;95915.28;;;7.27;34.00
84714;BME280;74938;42.658;23.248;2024-01-30T07:29:08;95919.41;;;6.99;34.53
84714;BME280;74938;42.658;23.248;2024-01-30T07:31:33;95918.81;;;6.14;35.16
84714;BME280;74938;42.658;23.248;2024-01-30T07:33:58;95916.72;;;5.87;35.84
84714;BME280;74938;42.658;23.248;2024-01-30T07:36:24;95919.88;;;6.33;34.76
84714;BME280;74938;42.658;23.248;2024-01-30T07:38:49;95924.34;;;6.61;33.91
84714;BME280;74938;42.658;23.248;2024-01-30T07:41:15;95915.06;;;7.00;33.12
84714;BME280;74938;42.658;23.248;2024-01-30T07:43:40;95913.84;;;7.44;32.97
84714;BME280;74938;42.658;23.248;2024-01-30T07:46:05;95909.78;;;7.51;32.19
84714;BME280;74938;42.658;23.248;2024-01-30T07:48:32;95909.53;;;8.02;32.10
84714;BME280;74938;42.658;23.248;2024-01-30T07:50:59;95904.09;;;8.44;30.16
84714;BME280;74938;42.658;23.248;2024-01-30T07:53:24;95902.09;;;9.12;30.05
84714;BME280;74938;42.658;23.248;2024-01-30T07:55:50;95903.81;;;8.47;30.32
84714;BME280;74938;42.658;23.248;2024-01-30T07:58:15;95901.91;;;9.68;29.14
84714;BME280;74938;42.658;23.248;2024-01-30T08:00:40;95908.59;;;9.97;28.76
84714;BME280;74938;42.658;23.248;2024-01-30T08:03:06;95899.66;;;9.91;27.80
84714;BME280;74938;42.658;23.248;2024-01-30T08:05:32;95908.34;;;9.55;29.28
84714;BME280;74938;42.658;23.248;2024-01-30T08:07:57;95895.38;;;9.64;28.34
84714;BME280;74938;42.658;23.248;2024-01-30T08:10:23;95905.03;;;10.33;27.26
84714;BME280;74938;42.658;23.248;2024-01-30T08:12:48;95904.63;;;10.20;26.98
84714;BME280;74938;42.658;23.248;2024-01-30T08:15:14;95908.00;;;10.64;27.74
84714;BME280;74938;42.658;23.248;2024-01-30T08:17:39;95893.41;;;11.23;26.38
84714;BME280;74938;42.658;23.248;2024-01-30T08:20:05;95896.66;;;11.25;24.64
84714;BME280;74938;42.658;23.248;2024-01-30T08:22:31;95894.63;;;11.53;25.77
84714;BME280;74938;42.658;23.248;2024-01-30T08:24:56;95894.31;;;11.56;25.18
84714;BME280;74938;42.658;23.248;2024-01-30T08:27:22;95902.34;;;11.87;25.47
84714;BME280;74938;42.658;23.248;2024-01-30T08:29:47;95902.19;;;12.45;24.11
84714;BME280;74938;42.658;23.248;2024-01-30T08:32:13;95904.97;;;10.07;25.95
84714;BME280;74938;42.658;23.248;2024-01-30T08:34:38;95906.38;;;10.63;27.00
84714;BME280;74938;42.658;23.248;2024-01-30T08:37:04;95906.50;;;11.72;25.25
84714;BME280;74938;42.658;23.248;2024-01-30T08:39:29;95909.97;;;12.05;24.70
84714;BME280;74938;42.658;23.248;2024-01-30T08:41:56;95912.34;;;12.71;23.07
84714;BME280;74938;42.658;23.248;2024-01-30T08:44:23;95916.53;;;12.97;23.69
84714;BME280;74938;42.658;23.248;2024-01-30T08:46:48;95909.25;;;12.76;23.56
84714;BME280;74938;42.658;23.248;2024-01-30T08:49:16;95920.31;;;13.95;22.25
84714;BME280;74938;42.658;23.248;2024-01-30T08:51:42;95917.59;;;14.34;22.03
84714;BME280;74938;42.658;23.248;2024-01-30T08:54:07;95915.19;;;11.63;25.22
84714;BME280;74938;42.658;23.248;2024-01-30T08:56:33;95911.81;;;8.34;28.25
84714;BME280;74938;42.658;23.248;2024-01-30T08:58:58;95915.59;;;7.44;31.53
84714;BME280;74938;42.658;23.248;2024-01-30T09:01:25;95923.31;;;7.53;31.23
84714;BME280;74938;42.658;23.248;2024-01-30T09:03:50;95928.84;;;5.53;35.25
84714;BME280;74938;42.658;23.248;2024-01-30T09:06:15;95930.94;;;5.48;35.83
84714;BME280;74938;42.658;23.248;2024-01-30T09:08:41;95923.13;;;5.39;35.65
84714;BME280;74938;42.658;23.248;2024-01-30T09:11:11;95927.75;;;5.56;36.83
84714;BME280;74938;42.658;23.248;2024-01-30T09:13:37;95917.84;;;5.08;38.00
84714;BME280;74938;42.658;23.248;2024-01-30T09:16:03;95913.28;;;5.12;36.95
84714;BME280;74938;42.658;23.248;2024-01-30T09:18:28;95915.28;;;5.19;38.38
84714;BME280;74938;42.658;23.248;2024-01-30T09:20:53;95913.41;;;5.10;36.99
84714;BME280;74938;42.658;23.248;2024-01-30T09:23:19;95913.56;;;3.96;40.48
84714;BME280;74938;42.658;23.248;2024-01-30T09:25:45;95915.59;;;3.56;41.75
84714;BME280;74938;42.658;23.248;2024-01-30T09:28:10;95913.00;;;3.44;42.58
84714;BME280;74938;42.658;23.248;2024-01-30T09:30:35;95911.19;;;3.10;45.63
84714;BME280;74938;42.658;23.248;2024-01-30T09:33:01;95906.59;;;3.63;45.13
84714;BME280;74938;42.658;23.248;2024-01-30T09:35:26;95911.28;;;3.32;43.62
84714;BME280;74938;42.658;23.248;2024-01-30T09:37:52;95913.72;;;2.48;46.08
84714;BME280;74938;42.658;23.248;2024-01-30T09:40:18;95902.41;;;2.52;46.04
84714;BME280;74938;42.658;23.248;2024-01-30T09:42:46;95914.41;;;1.99;47.03
84714;BME280;74938;42.658;23.248;2024-01-30T09:45:13;95916.25;;;1.97;47.09
84714;BME280;74938;42.658;23.248;2024-01-30T09:47:43;95907.19;;;2.31;46.74
84714;BME280;74938;42.658;23.248;2024-01-30T09:50:11;95902.63;;;2.24;46.42
84714;BME280;74938;42.658;23.248;2024-01-30T09:52:36;95904.34;;;2.23;46.84
84714;BME280;74938;42.658;23.248;2024-01-30T09:55:03;95906.34;;;1.93;46.78
84714;BME280;74938;42.658;23.248;2024-01-30T09:57:28;95898.78;;;1.79;47.08
84714;BME280;74938;42.658;23.248;2024-01-30T09:59:54;95902.69;;;1.57;46.91
84714;BME280;74938;42.658;23.248;2024-01-30T10:02:20;95895.84;;;1.45;47.91
84714;BME280;74938;42.658;23.248;2024-01-30T10:04:49;95906.19;;;1.29;48.54
84714;BME280;74938;42.658;23.248;2024-01-30T10:07:16;95896.66;;;1.19;48.64
84714;BME280;74938;42.658;23.248;2024-01-30T10:09:42;95897.97;;;1.38;49.11
84714;BME280;74938;42.658;23.248;2024-01-30T10:12:09;95893.78;;;1.37;49.48
84714;BME280;74938;42.658;23.248;2024-01-30T10:14:40;95890.72;;;1.32;48.92
84714;BME280;74938;42.658;23.248;2024-01-30T10:17:08;95884.94;;;1.16;49.53
84714;BME280;74938;42.658;23.248;2024-01-30T10:19:34;95891.72;;;1.30;48.90
84714;BME280;74938;42.658;23.248;2024-01-30T10:22:00;95882.16;;;1.33;48.78
84714;BME280;74938;42.658;23.248;2024-01-30T10:24:26;95893.97;;;1.08;49.75
84714;BME280;74938;42.658;23.248;2024-01-30T10:26:53;95889.25;;;1.28;49.35
84714;BME280;74938;42.658;23.248;2024-01-30T10:29:18;95889.13;;;1.17;50.47
84714;BME280;74938;42.658;23.248;2024-01-30T10:31:44;95886.41;;;1.20;49.61
84714;BME280;74938;42.658;23.248;2024-01-30T10:34:09;95891.44;;;1.34;49.20
84714;BME280;74938;42.658;23.248;2024-01-30T10:36:40;95888.72;;;1.50;49.48
84714;BME280;74938;42.658;23.248;2024-01-30T10:39:08;95888.28;;;1.44;48.94
84714;BME280;74938;42.658;23.248;2024-01-30T10:41:41;95889.38;;;1.39;50.34
84714;BME280;74938;42.658;23.248;2024-01-30T10:44:09;95885.75;;;1.44;49.23
84714;BME280;74938;42.658;23.248;2024-01-30T10:46:38;95890.72;;;1.32;48.54
84714;BME280;74938;42.658;23.248;2024-01-30T10:49:04;95879.34;;;1.24;49.28
84714;BME280;74938;42.658;23.248;2024-01-30T10:51:31;95872.88;;;1.32;49.43
84714;BME280;74938;42.658;23.248;2024-01-30T10:53:57;95875.47;;;1.58;48.23
84714;BME280;74938;42.658;23.248;2024-01-30T10:56:23;95860.22;;;1.04;49.23
84714;BME280;74938;42.658;23.248;2024-01-30T10:58:53;95872.34;;;1.27;50.28
84714;BME280;74938;42.658;23.248;2024-01-30T11:01:20;95858.13;;;1.37;49.82
84714;BME280;74938;42.658;23.248;2024-01-30T11:03:54;95863.41;;;1.34;49.29
84714;BME280;74938;42.658;23.248;2024-01-30T11:06:24;95852.00;;;1.40;49.58
84714;BME280;74938;42.658;23.248;2024-01-30T11:09:02;95850.94;;;1.17;49.82
84714;BME280;74938;42.658;23.248;2024-01-30T11:11:29;95851.16;;;1.27;49.77
84714;BME280;74938;42.658;23.248;2024-01-30T11:13:55;95842.94;;;1.36;49.46
84714;BME280;74938;42.658;23.248;2024-01-30T11:16:20;95843.69;;;1.51;48.41
84714;BME280;74938;42.658;23.248;2024-01-30T11:18:50;95844.53;;;1.64;49.08
84714;BME280;74938;42.658;23.248;2024-01-30T11:21:15;95852.88;;;1.66;48.03
84714;BME280;74938;42.658;23.248;2024-01-30T11:23:42;95845.72;;;1.46;48.64
84714;BME280;74938;42.658;23.248;2024-01-30T11:26:10;95841.88;;;1.26;50.16
84714;BME280;74938;42.658;23.248;2024-01-30T11:28:37;95842.59;;;1.28;48.96
84714;BME280;74938;42.658;23.248;2024-01-30T11:31:04;95847.66;;;1.15;50.84
84714;BME280;74938;42.658;23.248;2024-01-30T11:33:30;95834.34;;;1.24;50.05
84714;BME280;74938;42.658;23.248;2024-01-30T11:35:57;95838.25;;;1.43;50.55
84714;BME280;74938;42.658;23.248;2024-01-30T11:38:25;95844.09;;;1.57;50.18
84714;BME280;74938;42.658;23.248;2024-01-30T11:40:51;95841.00;;;1.39;49.76
84714;BME280;74938;42.658;23.248;2024-01-30T11:43:18;95848.16;;;1.47;50.11
84714;BME280;74938;42.658;23.248;2024-01-30T11:45:44;95843.03;;;1.34;49.39
84714;BME280;74938;42.658;23.248;2024-01-30T11:48:11;95849.59;;;1.38;49.79
84714;BME280;74938;42.658;23.248;2024-01-30T11:50:37;95831.13;;;1.35;50.17
84714;BME280;74938;42.658;23.248;2024-01-30T11:53:04;95840.09;;;1.40;49.94
84714;BME280;74938;42.658;23.248;2024-01-30T11:55:30;95840.03;;;1.55;49.98
84714;BME280;74938;42.658;23.248;2024-01-30T11:57:56;95831.97;;;1.21;50.02
84714;BME280;74938;42.658;23.248;2024-01-30T12:00:22;95831.53;;;1.42;49.96
84714;BME280;74938;42.658;23.248;2024-01-30T12:02:52;95833.41;;;1.52;48.84
84714;BME280;74938;42.658;23.248;2024-01-30T12:05:24;95822.59;;;1.49;50.14
84714;BME280;74938;42.658;23.248;2024-01-30T12:07:49;95811.38;;;1.51;49.80
84714;BME280;74938;42.658;23.248;2024-01-30T12:10:15;95815.28;;;1.17;50.41
84714;BME280;74938;42.658;23.248;2024-01-30T12:12:44;95812.88;;;1.41;50.22
84714;BME280;74938;42.658;23.248;2024-01-30T12:15:10;95803.22;;;1.59;49.86
84714;BME280;74938;42.658;23.248;2024-01-30T12:17:36;95800.09;;;1.68;48.78
84714;BME280;74938;42.658;23.248;2024-01-30T12:20:05;95798.06;;;1.86;48.24
84714;BME280;74938;42.658;23.248;2024-01-30T12:22:41;95796.72;;;1.67;48.92
84714;BME280;74938;42.658;23.248;2024-01-30T12:25:08;95792.75;;;1.51;50.56
84714;BME280;74938;42.658;23.248;2024-01-30T12:27:35;95783.16;;;1.67;50.08
84714;BME280;74938;42.658;23.248;2024-01-30T12:30:00;95781.72;;;1.63;49.03
84714;BME280;74938;42.658;23.248;2024-01-30T12:32:26;95781.13;;;1.72;49.83
84714;BME280;74938;42.658;23.248;2024-01-30T12:34:55;95787.22;;;1.95;49.19
84714;BME280;74938;42.658;23.248;2024-01-30T12:37:21;95777.66;;;1.86;48.75
84714;BME280;74938;42.658;23.248;2024-01-30T12:39:48;95781.31;;;1.94;49.02
84714;BME280;74938;42.658;23.248;2024-01-30T12:42:14;95783.97;;;1.80;48.97
84714;BME280;74938;42.658;23.248;2024-01-30T12:44:41;95787.94;;;1.59;49.27
84714;BME280;74938;42.658;23.248;2024-01-30T12:47:08;95771.75;;;1.72;50.41
84714;BME280;74938;42.658;23.248;2024-01-30T12:49:34;95773.38;;;1.86;48.78